Time;durP1;ratioP1;P1;durP2;ratioP2;P2;SDS_P1;SDS_P2;PMS_P1;PMS_P2;Temp;Humidity;BMP_temperature;BMP_pressure;BME280_temperature;BME280_humidity;BME280_pressure;Samples;Min_cycle;Max_cycle;Signal;HPM_P1;HPM_P2
2021/04/14 00:01:08;;;;;;;3.60;3.30;;;7.00;24.60;;;;;;5051761;28;20406;-66
2021/04/14 00:03:34;;;;;;;3.67;3.47;;;7.40;25.80;;;;;;5051819;28;20202;-65
2021/04/14 00:06:00;;;;;;;3.40;3.10;;;7.20;24.30;;;;;;5051555;28;20445;-66
2021/04/14 00:08:30;;;;;;;2.90;2.70;;;7.30;23.90;;;;;;5051621;28;20407;-66
2021/04/14 00:10:56;;;;;;;2.37;2.20;;;7.40;23.60;;;;;;5051932;28;20202;-66
2021/04/14 00:13:25;;;;;;;4.03;2.73;;;6.70;24.30;;;;;;5051274;28;20403;-66
2021/04/14 00:15:54;;;;;;;3.07;2.87;;;6.80;24.90;;;;;;5051410;28;20953;-65
2021/04/14 00:18:20;;;;;;;3.47;3.17;;;6.80;24.30;;;;;;5051581;28;20406;-67
2021/04/14 00:20:47;;;;;;;3.67;3.40;;;6.90;24.10;;;;;;5051514;28;20398;-66
2021/04/14 00:23:13;;;;;;;3.40;3.10;;;7.00;24.10;;;;;;5051438;28;20795;-66
2021/04/14 00:25:46;;;;;;;4.87;3.40;;;7.10;23.90;;;;;;5051390;28;20465;-66
2021/04/14 00:28:14;;;;;;;3.50;3.20;;;7.10;23.90;;;;;;5051570;28;20411;-67
2021/04/14 00:30:40;;;;;;;3.13;2.93;;;7.00;24.30;;;;;;5051284;28;20497;-68
2021/04/14 00:33:06;;;;;;;3.43;3.17;;;6.60;24.60;;;;;;5051336;28;20414;-66
2021/04/14 00:35:32;;;;;;;2.90;2.70;;;6.50;25.60;;;;;;5051363;28;20429;-66
2021/04/14 00:37:57;;;;;;;4.50;3.00;;;6.60;25.20;;;;;;5051389;28;20167;-67
2021/04/14 00:40:32;;;;;;;4.70;3.17;;;6.70;25.10;;;;;;5051563;28;20477;-65
2021/04/14 00:42:58;;;;;;;3.23;3.03;;;6.50;25.30;;;;;;5051401;28;20171;-66
2021/04/14 00:45:25;;;;;;;3.43;3.23;;;6.80;24.70;;;;;;5051194;28;20524;-66
2021/04/14 00:47:51;;;;;;;2.90;2.70;;;6.90;24.40;;;;;;5051307;28;20414;-66
2021/04/14 00:50:21;;;;;;;3.07;2.87;;;6.90;24.50;;;;;;5051249;28;20546;-67
2021/04/14 00:52:46;;;;;;;4.33;2.93;;;7.00;23.90;;;;;;5051173;28;20199;-66
2021/04/14 00:55:16;;;;;;;3.13;2.83;;;7.20;23.40;;;;;;5051184;28;20470;-66
2021/04/14 00:57:42;;;;;;;6.00;4.00;;;7.00;23.40;;;;;;5051109;28;20243;-66
2021/04/14 01:00:36;;;;;;;4.90;4.43;;;7.00;23.80;;;;;;5051288;28;20417;-66
2021/04/14 01:03:04;;;;;;;3.43;3.23;;;6.90;24.20;;;;;;5047967;28;20242;-67
2021/04/14 01:05:34;;;;;;;4.00;3.20;;;7.00;24.30;;;;;;5051048;28;20430;-67
2021/04/14 01:08:00;;;;;;;2.90;2.70;;;7.00;24.50;;;;;;5051150;28;20441;-65
2021/04/14 01:10:25;;;;;;;4.33;3.00;;;6.80;23.30;;;;;;5051158;28;20879;-66
2021/04/14 01:12:53;;;;;;;3.23;3.00;;;6.60;24.20;;;;;;5051035;28;20643;-67
2021/04/14 01:15:28;;;;;;;3.00;2.80;;;6.40;24.30;;;;;;5050923;28;20202;-67
2021/04/14 01:17:54;;;;;;;2.47;2.37;;;6.60;24.60;;;;;;5051025;28;20397;-67
2021/04/14 01:20:20;;;;;;;3.13;2.60;;;6.70;24.90;;;;;;5058407;28;20420;-67
2021/04/14 01:22:46;;;;;;;3.27;3.00;;;6.80;25.10;;;;;;5065933;28;20421;-67
2021/04/14 01:25:15;;;;;;;3.33;3.13;;;6.90;24.60;;;;;;5070000;28;20444;-67
2021/04/14 01:27:40;;;;;;;3.77;3.10;;;6.90;24.30;;;;;;5074717;28;20655;-67
2021/04/14 01:30:20;;;;;;;3.43;3.00;;;6.40;25.00;;;;;;5074531;28;20447;-66
2021/04/14 01:32:45;;;;;;;3.30;3.00;;;6.30;25.20;;;;;;5074581;28;20734;-66
2021/04/14 01:35:13;;;;;;;3.43;2.90;;;6.40;25.00;;;;;;5074340;28;20508;-67
2021/04/14 01:37:39;;;;;;;2.60;2.40;;;6.20;25.60;;;;;;5074485;28;20206;-66
2021/04/14 01:40:06;;;;;;;4.90;3.40;;;6.00;25.90;;;;;;5074884;28;20413;-67
2021/04/14 01:42:31;;;;;;;3.50;3.20;;;6.20;26.00;;;;;;5074370;28;20413;-66
2021/04/14 01:44:57;;;;;;;2.87;2.67;;;6.30;25.90;;;;;;5074164;28;20419;-67
2021/04/14 01:47:22;;;;;;;4.43;3.20;;;6.30;26.00;;;;;;5074287;28;20178;-65
2021/04/14 01:49:48;;;;;;;2.50;2.40;;;6.00;26.40;;;;;;5074219;28;20212;-66
2021/04/14 01:52:13;;;;;;;3.30;3.00;;;5.90;26.70;;;;;;5074242;28;20234;-67
2021/04/14 01:54:39;;;;;;;3.50;3.10;;;5.90;27.30;;;;;;5074049;28;20221;-68
2021/04/14 01:57:06;;;;;;;2.87;2.70;;;6.00;27.40;;;;;;5074044;28;20194;-67
2021/04/14 01:59:31;;;;;;;3.43;3.13;;;5.90;27.00;;;;;;5074083;28;20611;-67
2021/04/14 02:01:57;;;;;;;4.10;3.13;;;6.20;27.00;;;;;;5074075;28;20411;-64
2021/04/14 02:04:22;;;;;;;3.80;3.40;;;6.40;26.70;;;;;;5073840;28;20173;-65
2021/04/14 02:06:48;;;;;;;3.70;3.40;;;6.40;26.90;;;;;;5073869;28;20277;-66
2021/04/14 02:09:14;;;;;;;4.00;3.60;;;6.30;26.50;;;;;;5073804;28;20307;-66
2021/04/14 02:11:40;;;;;;;3.80;3.50;;;6.20;27.00;;;;;;5073942;28;20166;-66
2021/04/14 02:14:09;;;;;;;3.20;2.97;;;6.20;26.80;;;;;;5073891;28;20450;-67
2021/04/14 02:16:35;;;;;;;5.27;3.47;;;6.30;26.60;;;;;;5073864;28;20193;-66
2021/04/14 02:19:00;;;;;;;5.20;3.57;;;6.40;27.00;;;;;;5073678;28;20413;-66
2021/04/14 02:21:26;;;;;;;7.70;3.40;;;6.50;26.50;;;;;;5073756;28;20187;-65
2021/04/14 02:23:51;;;;;;;3.83;3.50;;;6.30;26.40;;;;;;5073404;28;20194;-65
2021/04/14 02:26:21;;;;;;;3.33;3.13;;;6.40;26.60;;;;;;5073498;28;20203;-65
2021/04/14 02:28:47;;;;;;;3.40;3.20;;;6.40;26.70;;;;;;5073670;28;20175;-66
2021/04/14 02:31:30;;;;;;;5.70;3.37;;;6.60;26.70;;;;;;5073550;28;20452;-67
2021/04/14 02:34:01;;;;;;;4.10;3.90;;;6.60;26.60;;;;;;5073352;28;20525;-67
2021/04/14 02:36:27;;;;;;;5.27;3.30;;;6.50;26.50;;;;;;5055097;28;20936;-68
2021/04/14 02:38:53;;;;;;;4.10;3.80;;;6.50;26.70;;;;;;5073338;28;20446;-68
2021/04/14 02:41:18;;;;;;;5.70;4.30;;;6.40;27.30;;;;;;5073280;28;20649;-67
2021/04/14 02:43:44;;;;;;;8.17;4.43;;;6.20;27.50;;;;;;5073345;28;20449;-69
2021/04/14 02:46:10;;;;;;;4.60;4.30;;;6.30;27.30;;;;;;5073169;28;20270;-66
2021/04/14 02:48:36;;;;;;;4.00;3.70;;;6.30;27.40;;;;;;5072796;28;20648;-67
2021/04/14 02:51:03;;;;;;;4.20;3.90;;;6.20;27.50;;;;;;5071870;28;20210;-67
2021/04/14 02:53:29;;;;;;;3.80;3.30;;;6.20;27.50;;;;;;5072467;28;20402;-67
2021/04/14 02:55:54;;;;;;;3.30;3.10;;;5.60;28.30;;;;;;5072691;28;20423;-68
2021/04/14 02:58:20;;;;;;;4.27;3.97;;;5.40;29.10;;;;;;5072908;28;20178;-66
2021/04/14 03:00:46;;;;;;;4.00;3.70;;;5.30;29.50;;;;;;5073006;28;20171;-66
2021/04/14 03:03:11;;;;;;;4.33;3.73;;;5.50;29.10;;;;;;5072846;28;20172;-67
2021/04/14 03:05:37;;;;;;;4.67;3.67;;;5.50;29.10;;;;;;5072482;28;20268;-68
2021/04/14 03:08:03;;;;;;;3.90;3.60;;;5.20;29.00;;;;;;5072735;28;20176;-66
2021/04/14 03:10:29;;;;;;;4.30;3.57;;;5.20;29.40;;;;;;5072545;28;20207;-68
2021/04/14 03:12:55;;;;;;;3.70;3.40;;;5.10;29.00;;;;;;5072885;28;20394;-68
2021/04/14 03:15:28;;;;;;;3.57;3.27;;;5.20;28.90;;;;;;5072278;28;20428;-65
2021/04/14 03:17:55;;;;;;;3.83;3.27;;;4.80;28.80;;;;;;5072547;28;20401;-67
2021/04/14 03:20:21;;;;;;;3.47;3.27;;;5.10;28.90;;;;;;5072531;28;20410;-66
2021/04/14 03:22:47;;;;;;;3.80;3.50;;;5.20;29.00;;;;;;5066132;28;20429;-66
2021/04/14 03:25:13;;;;;;;3.87;3.67;;;5.30;29.00;;;;;;5052117;28;20872;-66
2021/04/14 03:27:38;;;;;;;3.60;3.30;;;5.30;29.40;;;;;;5063325;28;20433;-66
2021/04/14 03:30:05;;;;;;;3.70;3.37;;;5.10;29.60;;;;;;5052162;28;20454;-66
2021/04/14 03:32:32;;;;;;;4.10;3.80;;;5.10;29.60;;;;;;5064833;28;20187;-64
2021/04/14 03:34:58;;;;;;;5.53;4.20;;;5.20;29.60;;;;;;5071828;28;20393;-66
2021/04/14 03:37:24;;;;;;;3.70;3.27;;;5.50;29.40;;;;;;5072342;28;20769;-66
2021/04/14 03:39:49;;;;;;;3.50;3.30;;;5.70;29.30;;;;;;5072212;28;20707;-66
2021/04/14 03:42:15;;;;;;;16.30;12.03;;;5.90;29.00;;;;;;5072034;28;20418;-66
2021/04/14 03:44:41;;;;;;;4.43;4.03;;;5.90;28.90;;;;;;5071974;28;20221;-66
2021/04/14 03:47:06;;;;;;;4.77;3.97;;;5.30;29.30;;;;;;5071283;28;20438;-67
2021/04/14 03:49:32;;;;;;;4.93;3.90;;;5.10;30.00;;;;;;5071894;28;20705;-65
2021/04/14 03:51:58;;;;;;;3.60;3.37;;;5.40;30.10;;;;;;5071844;28;20652;-66
2021/04/14 03:54:24;;;;;;;5.53;4.83;;;5.60;29.50;;;;;;5071830;28;20412;-65
2021/04/14 03:56:50;;;;;;;5.93;4.03;;;5.70;29.30;;;;;;5071906;28;20187;-65
2021/04/14 03:59:16;;;;;;;4.60;4.30;;;5.60;29.20;;;;;;5071913;28;20940;-66
2021/04/14 04:01:42;;;;;;;5.17;4.77;;;5.40;30.00;;;;;;5071792;28;20420;-66
2021/04/14 04:04:07;;;;;;;4.83;4.30;;;5.70;29.50;;;;;;5071868;28;20405;-65
2021/04/14 04:06:33;;;;;;;19.93;12.53;;;5.80;29.80;;;;;;5071823;28;20426;-67
2021/04/14 04:08:58;;;;;;;4.47;4.07;;;5.90;29.40;;;;;;5071798;28;20197;-66
2021/04/14 04:11:25;;;;;;;4.20;3.80;;;5.90;29.40;;;;;;5071674;28;20239;-67
2021/04/14 04:13:52;;;;;;;4.47;4.07;;;5.80;29.30;;;;;;5068170;28;20175;-67
2021/04/14 04:16:17;;;;;;;5.50;5.00;;;5.90;29.40;;;;;;5071591;28;20641;-66
2021/04/14 04:18:43;;;;;;;7.30;4.87;;;5.80;29.60;;;;;;5071646;28;20489;-65
2021/04/14 04:21:10;;;;;;;4.83;4.40;;;5.80;29.30;;;;;;5064735;28;20184;-67
2021/04/14 04:23:36;;;;;;;4.27;3.97;;;5.90;29.40;;;;;;5063683;28;20236;-66
2021/04/14 04:26:02;;;;;;;4.53;4.13;;;5.90;29.30;;;;;;5071405;28;20443;-66
2021/04/14 04:28:28;;;;;;;5.47;4.30;;;5.90;29.40;;;;;;5071607;28;20432;-67
2021/04/14 04:30:54;;;;;;;4.13;3.83;;;5.80;29.30;;;;;;5071397;28;20545;-67
2021/04/14 04:33:20;;;;;;;5.47;5.00;;;6.00;29.10;;;;;;5071548;28;20183;-65
2021/04/14 04:35:46;;;;;;;4.73;4.33;;;6.00;28.90;;;;;;5071271;28;20199;-66
2021/04/14 04:38:11;;;;;;;6.67;4.83;;;5.90;28.70;;;;;;5071670;28;20404;-67
2021/04/14 04:40:37;;;;;;;4.40;3.97;;;5.80;29.30;;;;;;5065012;28;20562;-66
2021/04/14 04:43:03;;;;;;;4.63;4.10;;;5.90;28.70;;;;;;5059702;28;20238;-66
2021/04/14 04:45:32;;;;;;;3.60;3.40;;;5.70;28.60;;;;;;5052728;28;20221;-66
2021/04/14 04:47:59;;;;;;;6.30;4.03;;;5.70;28.70;;;;;;5071052;28;20776;-66
2021/04/14 04:50:29;;;;;;;4.73;4.13;;;5.70;28.70;;;;;;5071056;28;20467;-67
2021/04/14 04:53:01;;;;;;;3.50;3.20;;;5.70;28.80;;;;;;5060652;28;20413;-65
2021/04/14 04:55:27;;;;;;;5.53;4.10;;;5.70;29.00;;;;;;5067403;28;20440;-65
2021/04/14 04:57:53;;;;;;;4.57;4.17;;;5.70;28.80;;;;;;5050902;28;20406;-66
2021/04/14 05:00:20;;;;;;;8.03;4.97;;;5.70;27.80;;;;;;5054532;28;20496;-65
2021/04/14 05:02:45;;;;;;;4.10;3.80;;;5.70;27.90;;;;;;5067256;28;20269;-65
2021/04/14 05:05:15;;;;;;;4.23;3.83;;;5.70;27.50;;;;;;5067436;28;20515;-65
2021/04/14 05:07:40;;;;;;;5.23;4.57;;;5.70;28.20;;;;;;5074749;28;20186;-66
2021/04/14 05:10:07;;;;;;;7.73;4.30;;;5.80;27.70;;;;;;5062803;28;20449;-66
2021/04/14 05:12:33;;;;;;;4.50;4.20;;;5.90;27.80;;;;;;5074489;28;20174;-65
2021/04/14 05:14:59;;;;;;;4.00;3.50;;;6.00;27.10;;;;;;5074306;28;20454;-66
2021/04/14 05:17:25;;;;;;;4.47;4.07;;;6.00;27.30;;;;;;5074581;28;20171;-67
2021/04/14 05:19:50;;;;;;;4.40;4.00;;;6.00;27.30;;;;;;5060651;28;20420;-67
2021/04/14 05:22:16;;;;;;;7.33;4.60;;;6.00;27.50;;;;;;5054455;28;20190;-67
2021/04/14 05:24:41;;;;;;;5.07;4.13;;;6.10;27.60;;;;;;5058006;28;20225;-67
2021/04/14 05:27:08;;;;;;;5.13;4.83;;;6.10;27.60;;;;;;5066323;28;20218;-66
2021/04/14 05:29:33;;;;;;;4.80;4.37;;;6.10;27.90;;;;;;5054307;28;20183;-66
2021/04/14 05:31:59;;;;;;;5.63;4.40;;;6.10;27.50;;;;;;5070840;28;20839;-66
2021/04/14 05:34:25;;;;;;;6.77;5.13;;;7.40;42.00;;;;;;5074197;28;20174;-66
2021/04/14 05:36:52;;;;;;;5.77;5.00;;;8.10;38.40;;;;;;5069001;28;20202;-66
2021/04/14 05:39:18;;;;;;;9.10;5.30;;;8.40;37.70;;;;;;5073047;28;20171;-66
2021/04/14 05:41:44;;;;;;;5.10;4.70;;;9.60;43.90;;;;;;5058093;28;20534;-65
2021/04/14 05:44:09;;;;;;;9.77;4.33;;;10.40;37.00;;;;;;5058209;28;20410;-65
2021/04/14 05:46:35;;;;;;;7.03;6.20;;;9.80;34.10;;;;;;5060070;28;20209;-66
2021/04/14 05:49:00;;;;;;;6.73;5.47;;;9.40;28.80;;;;;;5059767;28;20210;-67
2021/04/14 05:51:30;;;;;;;7.80;6.57;;;7.90;27.60;;;;;;5036024;28;20203;-64
2021/04/14 05:53:56;;;;;;;9.70;7.37;;;7.40;26.70;;;;;;5068773;28;20193;-64
2021/04/14 05:56:23;;;;;;;10.63;7.93;;;6.90;27.40;;;;;;5065120;28;20875;-65
2021/04/14 05:58:49;;;;;;;8.87;7.40;;;6.50;27.90;;;;;;5064929;28;20449;-65
2021/04/14 06:01:20;;;;;;;7.87;7.10;;;6.30;28.40;;;;;;5073987;28;20412;-66
2021/04/14 06:03:48;;;;;;;10.37;7.43;;;6.40;28.50;;;;;;5073971;28;20928;-65
2021/04/14 06:06:15;;;;;;;9.20;7.40;;;6.20;28.70;;;;;;5073552;28;20439;-65
2021/04/14 06:08:41;;;;;;;8.47;7.63;;;6.10;28.90;;;;;;5074060;28;20763;-64
2021/04/14 06:11:06;;;;;;;10.23;8.10;;;6.20;29.00;;;;;;5073029;28;20462;-65
2021/04/14 06:13:33;;;;;;;14.40;7.97;;;6.10;28.80;;;;;;5073469;28;20175;-64
2021/04/14 06:15:59;;;;;;;9.83;8.23;;;6.00;29.40;;;;;;5073506;28;20700;-64
2021/04/14 06:18:25;;;;;;;8.10;7.10;;;6.10;29.50;;;;;;5073870;28;20401;-66
2021/04/14 06:20:51;;;;;;;14.67;9.33;;;6.10;29.30;;;;;;5073385;28;20405;-64
2021/04/14 06:23:19;;;;;;;10.73;9.33;;;6.10;29.30;;;;;;5072998;28;20779;-66
2021/04/14 06:28:21;;;;;;;10.60;7.33;;;6.30;29.10;;;;;;5073506;28;20772;-67
2021/04/14 06:30:47;;;;;;;13.20;7.77;;;6.30;28.70;;;;;;5073426;28;20460;-65
2021/04/14 06:33:14;;;;;;;9.83;8.70;;;6.20;28.70;;;;;;5073373;28;20401;-66
2021/04/14 06:35:40;;;;;;;9.57;8.67;;;6.30;28.60;;;;;;5073281;28;20188;-65
2021/04/14 06:38:06;;;;;;;11.77;8.20;;;6.40;29.30;;;;;;5063746;28;20783;-64
2021/04/14 06:43:35;;;;;;;8.83;7.93;;;6.70;28.10;;;;;;5053239;28;20505;-66
2021/04/14 06:46:06;;;;;;;8.17;7.33;;;6.80;27.90;;;;;;5053114;28;20430;-66
2021/04/14 06:48:52;;;;;;;6.73;6.03;;;7.00;27.60;;;;;;5053136;28;20406;-65
2021/04/14 06:51:51;;;;;;;7.17;6.47;;;6.90;27.00;;;;;;5052988;28;20460;-65
2021/04/14 06:54:24;;;;;;;6.13;5.70;;;6.90;26.90;;;;;;5052829;28;20884;-65
2021/04/14 06:56:58;;;;;;;5.10;4.70;;;6.70;25.90;;;;;;5052973;28;20463;-66
2021/04/14 06:59:25;;;;;;;5.77;5.10;;;6.90;26.50;;;;;;5052619;28;20929;-66
2021/04/14 07:01:58;;;;;;;5.80;4.60;;;7.10;25.80;;;;;;5053039;28;20917;-66
2021/04/14 07:04:36;;;;;;;5.30;4.80;;;7.10;25.70;;;;;;5052595;28;20497;-66
2021/04/14 07:07:04;;;;;;;9.70;7.50;;;7.20;25.50;;;;;;5052653;28;20995;-66
2021/04/14 07:09:40;;;;;;;8.30;5.70;;;7.20;26.20;;;;;;5061264;28;20509;-66
2021/04/14 07:12:14;;;;;;;6.23;5.63;;;7.30;25.60;;;;;;5059654;28;20420;-66
2021/04/14 07:14:40;;;;;;;7.87;6.13;;;7.20;25.70;;;;;;5052306;28;20422;-65
2021/04/14 07:17:15;;;;;;;6.53;6.03;;;7.30;25.60;;;;;;5052193;28;20480;-66
2021/04/14 07:20:11;;;;;;;7.80;6.13;;;7.30;25.90;;;;;;5052651;28;20447;-65
2021/04/14 07:22:48;;;;;;;5.73;5.23;;;7.10;26.10;;;;;;5051742;28;20913;-66
2021/04/14 07:25:26;;;;;;;6.07;5.43;;;7.10;26.00;;;;;;5051960;28;20509;-65
2021/04/14 07:28:07;;;;;;;6.43;5.80;;;7.00;27.00;;;;;;5052325;28;20428;-67
2021/04/14 07:31:11;;;;;;;9.70;5.87;;;7.10;26.40;;;;;;5069719;28;20489;-65
2021/04/14 07:33:47;;;;;;;6.07;5.53;;;7.10;27.50;;;;;;5058475;28;20429;-66
2021/04/14 07:36:21;;;;;;;8.80;6.80;;;7.20;26.40;;;;;;5055700;28;20438;-65
2021/04/14 07:38:58;;;;;;;12.80;10.93;;;7.10;26.60;;;;;;5071271;28;20410;-65
2021/04/14 07:41:41;;;;;;;7.27;6.43;;;7.30;27.10;;;;;;5070228;28;20409;-66
2021/04/14 07:44:31;;;;;;;9.53;7.10;;;7.30;26.20;;;;;;5051995;28;20398;-66
2021/04/14 07:46:57;;;;;;;9.13;7.67;;;7.30;26.20;;;;;;5051637;28;20929;-68
2021/04/14 07:49:26;;;;;;;6.90;5.23;;;7.50;27.60;;;;;;5051651;28;20407;-67
2021/04/14 07:51:51;;;;;;;8.90;6.53;;;7.60;25.80;;;;;;5051898;28;20206;-66
2021/04/14 07:54:18;;;;;;;6.90;6.20;;;7.70;25.80;;;;;;5063493;28;20418;-67
2021/04/14 07:56:46;;;;;;;7.00;6.40;;;7.80;25.60;;;;;;5071768;28;20728;-67
2021/04/14 07:59:16;;;;;;;6.33;5.60;;;7.80;25.30;;;;;;5071537;28;20463;-67
2021/04/14 08:02:12;;;;;;;6.00;5.50;;;7.90;25.00;;;;;;5071420;28;20410;-66
2021/04/14 08:04:47;;;;;;;13.73;6.60;;;7.90;25.20;;;;;;5071779;28;20413;-65
2021/04/14 08:07:18;;;;;;;6.60;6.10;;;7.70;25.60;;;;;;5071559;28;20444;-64
2021/04/14 08:10:03;;;;;;;5.73;5.23;;;7.60;26.10;;;;;;5071443;28;20452;-66
2021/04/14 08:12:31;;;;;;;6.23;5.60;;;7.90;25.90;;;;;;5071386;28;20510;-66
2021/04/14 08:15:18;;;;;;;8.53;7.83;;;8.00;25.70;;;;;;5070968;28;21058;-66
2021/04/14 08:17:46;;;;;;;8.30;5.37;;;8.10;25.10;;;;;;5071599;28;20429;-66
2021/04/14 08:20:29;;;;;;;6.03;5.47;;;8.30;25.40;;;;;;5071501;28;20443;-66
2021/04/14 08:23:08;;;;;;;5.97;5.43;;;8.40;25.10;;;;;;5071178;28;20412;-68
2021/04/14 08:25:35;;;;;;;6.50;5.90;;;8.50;24.30;;;;;;5071105;28;20444;-64
2021/04/14 08:28:01;;;;;;;6.17;4.83;;;8.50;24.00;;;;;;5063075;28;20406;-65
2021/04/14 08:30:28;;;;;;;8.40;5.83;;;8.50;25.50;;;;;;5050884;28;20450;-66
2021/04/14 08:32:53;;;;;;;5.40;4.97;;;8.60;24.40;;;;;;5033437;28;20441;-65
2021/04/14 08:35:36;;;;;;;5.00;4.60;;;8.90;23.70;;;;;;5050662;28;20575;-65
2021/04/14 08:38:15;;;;;;;16.10;6.60;;;9.10;24.20;;;;;;5051230;28;20179;-67
2021/04/14 08:40:48;;;;;;;23.53;7.33;;;9.30;25.00;;;;;;5051285;28;20498;-64
2021/04/14 08:43:37;;;;;;;9.33;5.70;;;9.60;23.40;;;;;;5051246;28;20410;-65
2021/04/14 08:46:25;;;;;;;6.70;4.87;;;9.60;23.70;;;;;;5050851;28;20426;-65
2021/04/14 08:49:02;;;;;;;4.53;4.23;;;9.50;23.20;;;;;;5051255;28;20410;-66
2021/04/14 08:51:32;;;;;;;4.33;4.03;;;9.70;24.60;;;;;;5051219;28;20946;-65
2021/04/14 08:53:58;;;;;;;5.40;4.90;;;9.70;22.00;;;;;;5050486;28;20439;-66
2021/04/14 08:56:27;;;;;;;4.97;4.57;;;9.60;23.20;;;;;;5050981;28;20458;-66
2021/04/14 08:58:54;;;;;;;5.70;5.20;;;9.70;22.40;;;;;;5051061;28;20423;-67
2021/04/14 09:01:21;;;;;;;5.50;5.10;;;9.70;21.90;;;;;;5050735;28;20521;-67
2021/04/14 09:03:47;;;;;;;5.77;5.20;;;9.90;22.90;;;;;;5051076;28;20464;-64
2021/04/14 09:06:15;;;;;;;4.60;4.27;;;10.20;21.50;;;;;;5050744;28;20464;-66
2021/04/14 09:08:44;;;;;;;4.07;3.70;;;10.20;20.30;;;;;;5050609;28;20434;-66
2021/04/14 09:11:25;;;;;;;4.83;4.43;;;10.40;20.80;;;;;;5050809;28;20976;-67
2021/04/14 09:14:01;;;;;;;4.77;4.37;;;10.40;19.50;;;;;;5051028;28;20414;-68
2021/04/14 09:16:35;;;;;;;7.23;4.07;;;10.50;20.00;;;;;;5050888;28;20422;-67
2021/04/14 09:19:24;;;;;;;6.43;5.17;;;10.20;20.00;;;;;;5051018;28;20414;-64
2021/04/14 09:22:11;;;;;;;5.80;4.47;;;10.30;22.10;;;;;;5050747;28;20410;-67
2021/04/14 09:24:46;;;;;;;8.40;4.50;;;10.40;19.80;;;;;;5036978;28;20805;-67
2021/04/14 09:27:33;;;;;;;4.87;4.17;;;10.50;19.90;;;;;;5059436;28;20438;-68
2021/04/14 09:30:17;;;;;;;4.17;3.77;;;10.80;20.90;;;;;;5063449;28;20454;-66
2021/04/14 09:32:45;;;;;;;4.33;4.00;;;10.80;18.50;;;;;;5050719;28;20402;-68
2021/04/14 09:35:34;;;;;;;3.93;3.43;;;11.00;17.70;;;;;;5050731;28;20407;-66
2021/04/14 09:38:23;;;;;;;4.30;4.00;;;11.10;19.70;;;;;;5012736;28;20985;-67
2021/04/14 09:40:53;;;;;;;4.93;4.63;;;11.20;16.90;;;;;;5050784;28;20472;-68
2021/04/14 09:43:35;;;;;;;4.37;4.00;;;11.10;18.10;;;;;;5050774;28;20899;-66
2021/04/14 09:46:08;;;;;;;4.30;4.00;;;11.20;16.60;;;;;;5033337;28;20489;-66
2021/04/14 09:48:38;;;;;;;5.17;4.40;;;11.50;17.60;;;;;;5054274;28;20421;-67
2021/04/14 09:51:16;;;;;;;4.50;4.20;;;11.60;16.90;;;;;;5056864;28;20485;-67
2021/04/14 09:53:42;;;;;;;5.53;4.90;;;11.40;17.10;;;;;;5067348;28;20493;-67
2021/04/14 09:56:15;;;;;;;4.60;4.20;;;11.40;16.60;;;;;;5066454;28;20513;-65
2021/04/14 09:58:49;;;;;;;3.93;3.60;;;11.50;17.30;;;;;;5073713;28;20449;-66
2021/04/14 10:01:44;;;;;;;4.50;4.10;;;11.80;16.20;;;;;;5074031;28;20421;-66
2021/04/14 10:04:23;;;;;;;3.83;3.27;;;11.70;15.00;;;;;;5056720;28;20429;-66
2021/04/14 10:06:53;;;;;;;4.30;3.70;;;11.40;13.90;;;;;;5073349;28;20429;-69
2021/04/14 10:09:25;;;;;;;3.43;3.20;;;11.30;15.10;;;;;;5073659;28;20456;-65
2021/04/14 10:11:51;;;;;;;4.27;2.97;;;11.10;14.50;;;;;;5073640;28;20413;-65
2021/04/14 10:14:24;;;;;;;3.10;2.90;;;10.80;13.70;;;;;;5073369;28;20430;-66
2021/04/14 10:16:51;;;;;;;5.30;3.70;;;10.80;14.70;;;;;;5073676;28;20941;-66
2021/04/14 10:19:30;;;;;;;3.70;3.40;;;10.70;14.50;;;;;;5073489;28;20398;-68
2021/04/14 10:21:56;;;;;;;3.33;3.07;;;10.60;15.10;;;;;;5073249;28;20493;-67
2021/04/14 10:24:22;;;;;;;4.37;3.30;;;10.60;15.40;;;;;;5073251;28;20949;-64
2021/04/14 10:26:53;;;;;;;3.93;3.70;;;10.70;14.60;;;;;;5073348;28;20428;-65
2021/04/14 10:29:24;;;;;;;3.43;3.23;;;10.60;15.30;;;;;;5071490;28;20406;-67
2021/04/14 10:31:50;;;;;;;3.60;3.40;;;10.60;15.10;;;;;;5053093;28;20838;-66
2021/04/14 10:34:28;;;;;;;3.87;3.57;;;10.70;15.40;;;;;;5053356;28;20411;-67
2021/04/14 10:36:54;;;;;;;6.57;6.07;;;11.00;16.30;;;;;;5054192;28;20210;-66
2021/04/14 10:39:31;;;;;;;4.13;3.87;;;11.20;16.90;;;;;;5073436;28;20882;-65
2021/04/14 10:41:58;;;;;;;5.33;4.10;;;11.00;16.10;;;;;;5059621;28;20517;-65
2021/04/14 10:44:31;;;;;;;7.07;5.00;;;10.80;17.10;;;;;;5052648;28;20486;-66
2021/04/14 10:47:41;;;;;;;4.53;4.17;;;10.80;17.50;;;;;;5053198;28;20427;-66
2021/04/14 10:50:15;;;;;;;3.90;3.70;;;10.80;16.40;;;;;;5008330;28;20466;-65
2021/04/14 10:52:45;;;;;;;4.63;3.90;;;10.60;18.50;;;;;;5052891;28;20445;-66
2021/04/14 10:55:14;;;;;;;7.30;4.63;;;10.50;19.20;;;;;;5053088;28;20411;-66
2021/04/14 10:57:45;;;;;;;4.17;3.83;;;10.40;19.80;;;;;;5052428;28;20403;-67
2021/04/14 11:00:22;;;;;;;4.00;3.70;;;10.30;19.80;;;;;;5053251;28;20906;-66
2021/04/14 11:02:50;;;;;;;5.77;4.17;;;10.40;20.30;;;;;;5053071;28;20898;-67
2021/04/14 11:05:20;;;;;;;4.47;4.00;;;10.20;20.00;;;;;;5052397;28;21107;-67
2021/04/14 11:07:49;;;;;;;4.50;4.20;;;10.20;20.00;;;;;;5053264;28;20421;-67
2021/04/14 11:10:24;;;;;;;8.23;4.00;;;10.00;20.80;;;;;;5052560;28;20450;-65
2021/04/14 11:12:50;;;;;;;4.00;3.73;;;9.90;22.80;;;;;;5052506;28;20718;-66
2021/04/14 11:15:23;;;;;;;5.30;4.80;;;9.80;22.10;;;;;;5052794;28;20545;-68
2021/04/14 11:17:57;;;;;;;5.47;3.80;;;9.70;21.40;;;;;;5052591;28;20792;-67
2021/04/14 11:20:26;;;;;;;4.47;4.17;;;9.50;20.70;;;;;;5052520;28;20415;-66
2021/04/14 11:22:54;;;;;;;4.53;3.67;;;9.40;22.10;;;;;;5053723;28;20475;-66
2021/04/14 11:25:30;;;;;;;4.00;3.70;;;9.40;19.30;;;;;;5055072;28;20437;-67
2021/04/14 11:28:05;;;;;;;3.53;3.33;;;9.50;19.60;;;;;;5052114;28;20414;-66
2021/04/14 11:30:44;;;;;;;6.03;4.20;;;9.50;20.90;;;;;;5052572;28;20945;-67
2021/04/14 11:33:10;;;;;;;9.90;4.83;;;9.60;19.20;;;;;;5052393;28;20498;-66
2021/04/14 11:35:52;;;;;;;4.77;3.70;;;9.70;20.00;;;;;;5052042;28;20506;-65
2021/04/14 11:38:31;;;;;;;4.30;4.00;;;9.80;18.80;;;;;;5052227;28;20160;-67
2021/04/14 11:40:58;;;;;;;3.40;3.20;;;9.80;17.90;;;;;;5052136;28;20982;-66
2021/04/14 11:43:26;;;;;;;3.90;3.60;;;9.90;16.60;;;;;;5052018;28;20941;-66
2021/04/14 11:45:58;;;;;;;4.70;4.30;;;10.00;16.30;;;;;;5051952;28;20439;-66
2021/04/14 11:48:35;;;;;;;4.37;3.97;;;10.10;17.20;;;;;;5052094;28;20417;-66
2021/04/14 11:51:24;;;;;;;6.40;4.40;;;10.10;17.00;;;;;;5051529;28;20457;-66
2021/04/14 11:53:52;;;;;;;7.50;4.20;;;10.20;17.70;;;;;;5061721;28;20460;-66
2021/04/14 11:56:41;;;;;;;12.10;4.80;;;10.10;17.80;;;;;;5068053;28;20512;-66
2021/04/14 11:59:27;;;;;;;13.13;4.40;;;10.20;18.40;;;;;;5051654;28;20416;-65
2021/04/14 12:02:01;;;;;;;3.60;3.40;;;10.40;18.10;;;;;;5051675;28;20406;-57
2021/04/14 12:04:28;;;;;;;4.70;4.50;;;13.90;54.10;;;;;;5051412;28;20413;-65
2021/04/14 12:06:53;;;;;;;14.23;5.20;;;16.60;34.70;;;;;;5051355;28;20422;-66
